Time;durP1;ratioP1;P1;durP2;ratioP2;P2;SDS_P1;SDS_P2;PMS_P1;PMS_P2;Temp;Humidity;BMP_temperature;BMP_pressure;BME280_temperature;BME280_humidity;BME280_pressure;Samples;Min_cycle;Max_cycle;Signal;HPM_P1;HPM_P2
2021/06/28 00:02:18;;;;;;;8.43;5.27;;;;;;;20.94;63.90;100423.36;126326;1099;104204;-77
2021/06/28 00:04:48;;;;;;;11.20;5.20;;;;;;;20.94;64.28;100422.45;126317;1099;105469;-78
2021/06/28 00:07:19;;;;;;;11.03;5.33;;;;;;;20.96;63.35;100428.69;126370;1099;104663;-77
2021/06/28 00:09:50;;;;;;;9.03;4.97;;;;;;;20.95;63.47;100426.91;126378;1099;104226;-77
2021/06/28 00:12:21;;;;;;;11.10;5.20;;;;;;;20.94;63.29;100427.79;126373;1099;104166;-78
2021/06/28 00:14:51;;;;;;;8.70;4.67;;;;;;;20.94;63.61;100430.46;126289;1099;104287;-77
2021/06/28 00:17:24;;;;;;;8.30;4.57;;;;;;;20.90;64.49;100429.61;126364;1099;104146;-77
2021/06/28 00:19:55;;;;;;;6.75;4.40;;;;;;;20.88;64.18;100426.08;126337;1099;104133;-77
2021/06/28 00:22:25;;;;;;;6.73;4.30;;;;;;;20.87;64.46;100434.97;126355;1099;104236;-78
2021/06/28 00:24:56;;;;;;;8.83;4.43;;;;;;;20.85;64.14;100433.20;126286;1099;104236;-76
2021/06/28 00:27:26;;;;;;;11.40;4.83;;;;;;;20.83;64.66;100436.78;126324;1099;104286;-76
2021/06/28 00:29:57;;;;;;;9.93;4.90;;;;;;;20.80;64.50;100433.23;126348;1098;104179;-77
2021/06/28 00:32:28;;;;;;;9.97;4.50;;;;;;;20.76;63.90;100432.38;126348;1099;104239;-77
2021/06/28 00:34:58;;;;;;;9.90;5.40;;;;;;;20.72;64.91;100430.62;126306;1099;104239;-77
2021/06/28 00:37:29;;;;;;;9.33;4.97;;;;;;;20.71;64.27;100433.30;126361;1099;104239;-77
2021/06/28 00:40:00;;;;;;;8.67;4.87;;;;;;;20.70;65.15;100434.21;126335;1099;104615;-78
2021/06/28 00:42:31;;;;;;;12.50;4.60;;;;;;;20.68;64.96;100441.31;126338;1099;104197;-78
2021/06/28 00:45:01;;;;;;;7.73;4.37;;;;;;;20.68;64.52;100441.31;126274;1099;104142;-77
2021/06/28 00:47:32;;;;;;;8.53;4.70;;;;;;;20.68;65.27;100434.22;126379;1099;104175;-77
2021/06/28 00:50:03;;;;;;;12.70;4.57;;;;;;;20.69;64.85;100440.43;126353;1099;104153;-77
2021/06/28 00:52:34;;;;;;;6.90;4.47;;;;;;;20.68;65.17;100442.22;126278;1099;104143;-77
2021/06/28 00:55:06;;;;;;;9.37;4.37;;;;;;;20.69;65.61;100443.09;126311;1099;104149;-77
2021/06/28 00:57:37;;;;;;;9.30;4.90;;;;;;;20.69;65.08;100443.09;126344;1099;104152;-76
2021/06/28 01:00:11;;;;;;;9.80;5.10;;;;;;;20.67;65.05;100445.77;126367;1099;104159;-76
2021/06/28 01:02:41;;;;;;;8.58;5.17;;;;;;;20.62;65.53;100445.77;126301;1099;104162;-76
2021/06/28 01:05:15;;;;;;;11.07;5.07;;;;;;;20.60;65.81;100446.66;126289;1097;104134;-78
2021/06/28 01:07:47;;;;;;;10.50;4.90;;;;;;;20.55;64.81;100449.36;126364;1099;104323;-77
2021/06/28 01:10:21;;;;;;;10.05;5.20;;;;;;;20.51;65.41;100452.08;126338;1097;104272;-77
2021/06/28 01:12:53;;;;;;;10.17;4.90;;;;;;;20.47;65.36;100449.44;126401;1099;104160;-76
2021/06/28 01:15:25;;;;;;;9.43;4.97;;;;;;;20.45;65.58;100448.53;126288;1099;104219;-77
2021/06/28 01:17:56;;;;;;;8.57;5.20;;;;;;;20.44;65.89;100449.45;126336;1099;104140;-77
2021/06/28 01:20:29;;;;;;;11.07;4.57;;;;;;;20.42;65.32;100453.87;126298;1099;104262;-77
2021/06/28 01:23:11;;;;;;;10.85;5.37;;;;;;;20.38;65.86;100454.81;126368;1098;104223;-76
2021/06/28 01:25:41;;;;;;;8.63;4.50;;;;;;;20.37;65.51;100463.69;126329;1099;104165;-77
2021/06/28 01:28:13;;;;;;;9.33;5.00;;;;;;;20.34;66.21;100462.83;126334;1099;104181;-76
2021/06/28 01:30:45;;;;;;;6.97;4.60;;;;;;;20.34;66.37;100463.70;126330;1099;104214;-77
2021/06/28 01:33:16;;;;;;;7.47;4.53;;;;;;;20.33;66.03;100466.38;126366;1099;104146;-77
2021/06/28 01:35:48;;;;;;;8.35;4.80;;;;;;;20.30;65.80;100472.59;126312;1099;104139;-77
2021/06/28 01:38:19;;;;;;;9.27;5.30;;;;;;;20.24;65.74;100469.95;126365;1099;104154;-77
2021/06/28 01:40:50;;;;;;;9.37;4.77;;;;;;;20.19;65.56;100475.30;126366;1099;104312;-77
2021/06/28 01:43:23;;;;;;;10.47;4.93;;;;;;;20.14;66.18;100469.12;126304;1099;104586;-76
2021/06/28 01:45:55;;;;;;;7.77;4.80;;;;;;;20.09;66.38;100474.47;126300;1099;104249;-77
2021/06/28 01:48:26;;;;;;;12.70;4.93;;;;;;;20.06;66.33;100468.27;126348;1098;104270;-77
2021/06/28 01:50:57;;;;;;;10.60;4.73;;;;;;;20.02;66.69;100475.37;126354;1099;104147;-77
2021/06/28 01:53:30;;;;;;;9.40;4.83;;;;;;;19.99;66.63;100475.41;126355;1099;104229;-77
2021/06/28 01:56:04;;;;;;;9.93;4.80;;;;;;;19.97;66.95;100481.63;126290;1099;104192;-77
2021/06/28 01:58:36;;;;;;;11.27;5.10;;;;;;;19.97;66.13;100473.63;126339;1099;104152;-77
2021/06/28 02:01:08;;;;;;;11.07;5.20;;;;;;;19.97;66.77;100479.83;126374;1099;104220;-77
2021/06/28 02:03:40;;;;;;;9.40;5.40;;;;;;;19.98;67.39;100486.06;126356;1099;104294;-77
2021/06/28 02:06:10;;;;;;;8.53;4.93;;;;;;;19.98;66.58;100484.28;126322;1099;104261;-77
2021/06/28 02:08:41;;;;;;;9.33;5.17;;;;;;;20.00;66.61;100481.61;126294;1099;104302;-77
2021/06/28 02:11:11;;;;;;;11.13;5.00;;;;;;;20.03;66.51;100484.27;126358;1099;104656;-77
2021/06/28 02:13:42;;;;;;;10.33;4.83;;;;;;;20.04;67.19;100478.93;126331;1099;104191;-77
2021/06/28 02:16:13;;;;;;;9.37;4.70;;;;;;;20.06;66.69;100487.80;126314;1099;104152;-78
2021/06/28 02:18:44;;;;;;;10.63;5.30;;;;;;;20.09;66.53;100487.78;126331;1099;104233;-77
2021/06/28 02:21:14;;;;;;;12.27;4.93;;;;;;;20.15;67.28;100481.56;126334;1099;104245;-77
2021/06/28 02:23:45;;;;;;;8.57;5.00;;;;;;;20.15;66.89;100481.56;126339;1099;104149;-77
2021/06/28 02:26:16;;;;;;;11.30;5.50;;;;;;;20.17;66.69;100489.55;126272;1099;104261;-77
2021/06/28 02:28:50;;;;;;;11.13;5.57;;;;;;;20.17;67.41;100481.55;126351;1099;104338;-76
2021/06/28 02:31:22;;;;;;;8.50;5.17;;;;;;;20.15;67.37;100483.31;126293;1099;104210;-77
2021/06/28 02:33:55;;;;;;;10.33;5.47;;;;;;;20.15;67.27;100491.30;126369;1099;104146;-76
2021/06/28 02:36:28;;;;;;;9.13;5.20;;;;;;;20.10;67.28;100483.33;126324;1099;104143;-76
2021/06/28 02:39:00;;;;;;;13.80;5.67;;;;;;;20.03;66.71;100487.80;126350;1099;104297;-76
2021/06/28 02:41:31;;;;;;;12.37;5.17;;;;;;;20.02;67.43;100486.02;126357;1097;104236;-77
2021/06/28 02:44:02;;;;;;;9.87;5.33;;;;;;;20.06;66.98;100497.58;126378;1099;104286;-77
2021/06/28 02:46:33;;;;;;;8.97;5.57;;;;;;;20.05;67.53;100494.00;126279;1099;104171;-77
2021/06/28 02:49:03;;;;;;;12.43;5.67;;;;;;;20.03;67.46;100489.59;126312;1098;104249;-77
2021/06/28 02:51:36;;;;;;;10.37;5.37;;;;;;;20.02;67.24;100490.47;126352;1099;104688;-77
2021/06/28 02:54:07;;;;;;;8.83;5.10;;;;;;;19.99;67.43;100494.05;126330;1099;104219;-76
2021/06/28 02:56:38;;;;;;;9.57;5.47;;;;;;;19.96;67.76;100496.72;126298;1099;105720;-77
2021/06/28 02:59:11;;;;;;;11.20;5.33;;;;;;;19.93;67.21;100496.73;126334;1097;104342;-77
2021/06/28 03:01:42;;;;;;;13.10;5.77;;;;;;;19.89;67.78;100498.49;126346;1099;104288;-77
2021/06/28 03:04:13;;;;;;;13.10;5.77;;;;;;;19.85;67.45;100494.09;126395;1099;104294;-77
2021/06/28 03:06:44;;;;;;;10.83;5.57;;;;;;;19.84;67.87;100494.09;126267;1098;104133;-76
2021/06/28 03:09:15;;;;;;;9.53;5.50;;;;;;;19.81;67.41;100497.64;126378;1099;104133;-77
2021/06/28 03:11:48;;;;;;;10.98;5.87;;;;;;;19.83;67.61;100505.63;126330;1099;104232;-77
2021/06/28 03:14:19;;;;;;;8.90;5.50;;;;;;;19.84;68.13;100510.06;126312;1099;104579;-77
2021/06/28 03:16:49;;;;;;;8.53;5.40;;;;;;;19.85;68.30;100509.16;126321;1098;104134;-77
2021/06/28 03:19:20;;;;;;;14.57;5.70;;;;;;;19.89;68.33;100514.47;126332;1099;104172;-77
2021/06/28 03:21:50;;;;;;;9.97;5.50;;;;;;;19.88;67.62;100512.72;126333;1099;103252;-76
2021/06/28 03:24:21;;;;;;;13.27;6.10;;;;;;;19.89;68.08;100518.92;126326;1098;104165;-77
2021/06/28 03:26:52;;;;;;;11.55;5.65;;;;;;;19.90;67.47;100515.37;126341;1099;104140;-77
2021/06/28 03:29:23;;;;;;;13.13;5.83;;;;;;;19.90;68.59;100502.06;126380;1099;110149;-77
2021/06/28 03:31:53;;;;;;;10.37;5.60;;;;;;;19.94;68.32;100503.81;126321;1099;104273;-77
2021/06/28 03:34:24;;;;;;;10.60;5.97;;;;;;;19.96;68.19;100511.80;126333;1099;104153;-77
2021/06/28 03:36:54;;;;;;;10.07;5.67;;;;;;;19.97;68.22;100517.11;126340;1099;104150;-77
2021/06/28 03:39:25;;;;;;;11.63;5.80;;;;;;;19.99;68.18;100512.70;126307;1099;104297;-77
2021/06/28 03:41:57;;;;;;;8.50;5.37;;;;;;;20.02;68.00;100517.11;126401;1099;104140;-77
2021/06/28 03:44:27;;;;;;;14.10;5.70;;;;;;;20.04;67.87;100515.31;126359;1099;104143;-77
2021/06/28 03:46:58;;;;;;;12.50;5.90;;;;;;;20.06;68.19;100519.75;126351;1099;104252;-77
2021/06/28 03:49:29;;;;;;;13.67;5.70;;;;;;;20.08;67.58;100514.42;126301;1099;104303;-77
2021/06/28 03:52:00;;;;;;;14.03;5.47;;;;;;;20.10;67.83;100516.20;126305;1099;104152;-76
2021/06/28 03:54:30;;;;;;;17.23;6.13;;;;;;;20.14;68.18;100518.86;126296;1099;104268;-77
2021/06/28 03:57:01;;;;;;;8.83;5.23;;;;;;;20.18;68.88;100524.17;126329;1099;104140;-77
2021/06/28 03:59:32;;;;;;;13.00;5.70;;;;;;;20.23;68.31;100526.81;126284;1099;104149;-76
2021/06/28 04:02:03;;;;;;;11.07;6.00;;;;;;;20.27;68.63;100524.14;126354;1097;104146;-76
2021/06/28 04:04:33;;;;;;;14.47;6.17;;;;;;;20.34;67.69;100530.32;126319;1099;104128;-78
2021/06/28 04:07:05;;;;;;;14.30;6.23;;;;;;;20.39;68.06;100524.97;126279;1099;104306;-77
2021/06/28 04:09:36;;;;;;;11.63;5.80;;;;;;;20.40;68.28;100526.76;126272;1099;104195;-77
2021/06/28 04:12:08;;;;;;;14.20;5.80;;;;;;;20.43;68.65;100524.95;126354;1099;104258;-77
2021/06/28 04:14:40;;;;;;;16.80;6.30;;;;;;;20.50;67.85;100531.13;126328;1099;104309;-77
2021/06/28 04:17:11;;;;;;;15.97;5.97;;;;;;;20.56;67.79;100531.10;126396;1099;105206;-78
2021/06/28 04:19:42;;;;;;;13.20;5.70;;;;;;;20.62;68.73;100535.53;126300;1099;104137;-78
2021/06/28 04:22:13;;;;;;;12.60;5.73;;;;;;;20.69;67.80;100529.28;126382;1098;104134;-77
2021/06/28 04:24:44;;;;;;;18.93;6.03;;;;;;;20.75;68.32;100539.92;126328;1099;104175;-78
2021/06/28 04:27:15;;;;;;;11.57;5.80;;;;;;;20.78;67.36;100537.23;126286;1098;104146;-78
2021/06/28 04:29:46;;;;;;;15.47;6.10;;;;;;;20.81;67.98;100531.02;126327;1099;104191;-79
2021/06/28 04:32:16;;;;;;;12.20;6.20;;;;;;;20.83;67.73;100543.45;126354;1099;104251;-78
2021/06/28 04:34:47;;;;;;;17.03;5.80;;;;;;;20.85;67.88;100543.44;126346;1099;104178;-80
2021/06/28 04:37:17;;;;;;;12.60;6.50;;;;;;;20.87;67.67;100538.97;126309;1098;104251;-78
2021/06/28 04:39:48;;;;;;;10.50;5.83;;;;;;;20.92;67.56;100544.28;126248;1099;104201;-79
2021/06/28 04:42:19;;;;;;;13.37;6.20;;;;;;;20.96;67.79;100538.05;126305;1099;104184;-77
2021/06/28 04:44:49;;;;;;;13.37;5.70;;;;;;;21.03;67.65;100539.75;126354;1099;104206;-78
2021/06/28 04:47:20;;;;;;;13.10;5.93;;;;;;;21.08;67.54;100548.60;126355;1099;104169;-78
2021/06/28 04:49:51;;;;;;;12.93;6.13;;;;;;;21.12;67.08;100539.69;126320;1099;104229;-78
2021/06/28 04:52:22;;;;;;;11.10;5.67;;;;;;;21.17;66.98;100540.53;126342;1099;104905;-78
2021/06/28 04:54:53;;;;;;;16.05;5.70;;;;;;;21.23;66.62;100542.28;126332;1099;104217;-78
2021/06/28 04:57:23;;;;;;;13.57;5.97;;;;;;;21.27;67.05;100538.70;126249;1099;104165;-78
2021/06/28 04:59:55;;;;;;;16.93;5.83;;;;;;;21.31;66.29;100535.09;126127;1099;104140;-77
2021/06/28 05:02:26;;;;;;;15.13;6.07;;;;;;;21.37;66.18;100529.70;126320;1099;104144;-78
2021/06/28 05:04:58;;;;;;;14.90;5.83;;;;;;;21.44;66.63;100532.33;126195;1099;104357;-76
2021/06/28 05:07:28;;;;;;;12.40;5.47;;;;;;;21.50;65.96;100543.89;126242;1098;105565;-76
2021/06/28 05:09:59;;;;;;;12.47;5.83;;;;;;;21.54;65.58;100539.41;126264;1099;104210;-77
2021/06/28 05:12:30;;;;;;;12.77;5.53;;;;;;;21.62;66.53;100540.21;126259;1099;104165;-78
2021/06/28 05:15:00;;;;;;;11.27;6.07;;;;;;;21.69;66.45;100541.03;126334;1099;104217;-77
2021/06/28 05:17:31;;;;;;;12.63;5.83;;;;;;;21.74;66.32;100539.22;126232;1099;105701;-76
2021/06/28 05:20:05;;;;;;;16.43;6.07;;;;;;;21.78;65.71;100548.95;126118;1099;104290;-76
2021/06/28 05:22:40;;;;;;;14.90;5.47;;;;;;;21.80;66.15;100547.17;126143;1099;104217;-77
2021/06/28 05:25:16;;;;;;;11.97;5.27;;;;;;;21.85;65.58;100548.01;126221;1099;104198;-76
2021/06/28 05:27:47;;;;;;;11.30;6.28;;;;;;;21.92;65.52;100553.29;126193;1099;104248;-77
2021/06/28 05:30:21;;;;;;;16.17;5.57;;;;;;;21.98;65.10;100563.91;126113;1099;104194;-77
2021/06/28 05:32:55;;;;;;;14.37;5.70;;;;;;;22.03;65.05;100559.39;126230;1099;104339;-77
2021/06/28 05:35:29;;;;;;;14.40;6.30;;;;;;;22.10;65.30;100550.42;126313;1099;104147;-79
2021/06/28 05:38:07;;;;;;;11.00;5.83;;;;;;;22.16;65.14;100562.81;126273;1099;104169;-79
2021/06/28 05:40:42;;;;;;;14.03;5.47;;;;;;;22.22;65.30;100558.30;126301;1097;104166;-78
2021/06/28 05:43:15;;;;;;;12.50;5.40;;;;;;;22.31;64.66;100559.13;126106;1099;104379;-76
2021/06/28 05:45:47;;;;;;;13.27;5.90;;;;;;;22.39;64.49;100554.56;126099;1099;104156;-76
2021/06/28 05:48:18;;;;;;;15.20;5.87;;;;;;;22.44;64.36;100561.64;126112;1099;104220;-78
2021/06/28 05:50:51;;;;;;;11.37;5.33;;;;;;;22.53;64.39;100562.41;126143;1099;104165;-78
2021/06/28 05:53:27;;;;;;;10.55;5.60;;;;;;;22.59;64.32;100570.36;126190;1099;104309;-79
2021/06/28 05:56:01;;;;;;;11.00;5.07;;;;;;;22.65;64.04;100572.95;125930;1099;104338;-75
2021/06/28 05:58:33;;;;;;;12.90;5.37;;;;;;;22.70;63.48;100570.23;126075;1099;104176;-75
2021/06/28 06:01:07;;;;;;;12.03;5.30;;;;;;;22.75;63.25;100581.73;126133;1098;104152;-77
2021/06/28 06:03:39;;;;;;;9.18;5.20;;;;;;;22.79;63.53;100580.80;126238;1099;104274;-77
2021/06/28 06:06:12;;;;;;;13.33;5.60;;;;;;;22.86;63.18;100574.47;126117;1099;104283;-77
2021/06/28 06:08:46;;;;;;;13.07;5.17;;;;;;;22.92;63.12;100579.74;126042;1099;104168;-76
2021/06/28 06:11:20;;;;;;;12.87;5.37;;;;;;;22.98;62.64;100587.69;125898;1099;104229;-78
2021/06/28 06:13:54;;;;;;;10.17;4.80;;;;;;;23.04;61.90;100594.72;126033;1098;104618;-77
2021/06/28 06:16:25;;;;;;;12.85;5.50;;;;;;;23.10;62.05;100588.44;126007;1099;104137;-76
2021/06/28 06:19:00;;;;;;;11.70;5.05;;;;;;;23.15;61.81;100592.83;126031;1099;104130;-78
2021/06/28 06:21:33;;;;;;;11.07;5.60;;;;;;;23.23;62.00;100595.36;126059;1098;104152;-77
2021/06/28 06:24:08;;;;;;;9.63;5.00;;;;;;;23.33;61.87;100596.13;126057;1099;104169;-76
2021/06/28 06:26:39;;;;;;;11.43;5.33;;;;;;;23.38;61.17;100596.93;126022;1099;104328;-76
2021/06/28 06:29:13;;;;;;;13.63;5.40;;;;;;;23.45;61.04;100597.70;125958;1098;104134;-76
2021/06/28 06:31:45;;;;;;;10.20;5.20;;;;;;;23.50;61.01;100599.41;125858;1099;104271;-78
2021/06/28 06:34:20;;;;;;;13.17;5.30;;;;;;;23.58;60.58;100603.77;125923;1099;104273;-76
2021/06/28 06:36:53;;;;;;;9.77;4.70;;;;;;;23.65;60.00;100603.65;125966;1099;104287;-75
2021/06/28 06:39:24;;;;;;;8.47;4.33;;;;;;;23.74;59.80;100604.39;125993;1099;104248;-75
2021/06/28 06:42:08;;;;;;;8.80;4.80;;;;;;;23.84;59.13;100600.66;125992;1099;104149;-78
2021/06/28 06:44:59;;;;;;;11.17;4.77;;;;;;;23.96;59.39;100594.21;126043;1099;104302;-77
2021/06/28 06:47:31;;;;;;;8.80;4.47;;;;;;;24.04;58.92;100598.53;126077;1099;104444;-75
2021/06/28 06:50:11;;;;;;;8.23;4.90;;;;;;;24.13;58.26;100607.30;126080;1099;104274;-76
2021/06/28 06:52:47;;;;;;;6.30;4.60;;;;;;;24.23;57.73;100607.11;126198;1099;104204;-76
2021/06/28 06:55:21;;;;;;;10.17;4.43;;;;;;;24.33;57.06;100606.93;126278;1099;104239;-77
2021/06/28 06:57:58;;;;;;;8.37;4.40;;;;;;;24.39;57.13;100602.32;126170;1098;104277;-76
2021/06/28 07:00:33;;;;;;;8.03;4.60;;;;;;;24.49;56.93;100605.69;126150;1099;104430;-78
2021/06/28 07:03:06;;;;;;;8.13;4.60;;;;;;;24.62;56.02;100606.38;126040;1099;104257;-77
2021/06/28 07:05:40;;;;;;;7.30;4.45;;;;;;;24.75;56.13;100613.23;126048;1098;104223;-75
2021/06/28 07:08:15;;;;;;;10.63;4.40;;;;;;;24.84;55.68;100604.12;126289;1099;104169;-76
2021/06/28 07:10:47;;;;;;;10.47;4.63;;;;;;;24.99;54.58;100604.69;125850;1099;104306;-75
2021/06/28 07:13:20;;;;;;;7.60;4.40;;;;;;;25.09;54.77;100612.50;125878;1099;105607;-75
2021/06/28 07:15:51;;;;;;;;;;;;;;;25.21;53.32;100607.77;126106;1099;104229;-75
2021/06/28 07:18:23;;;;;;;8.57;4.20;;;;;;;25.36;54.48;100610.13;125936;1099;104171;-76
2021/06/28 07:20:57;;;;;;;10.87;4.30;;;;;;;25.52;54.05;100604.38;126193;1099;104171;-75
2021/06/28 07:23:32;;;;;;;5.63;4.07;;;;;;;25.70;53.40;100617.37;125945;1099;104266;-75
2021/06/28 07:26:06;;;;;;;8.87;4.47;;;;;;;25.83;52.84;100602.67;126111;1099;104591;-75
2021/06/28 07:28:37;;;;;;;8.43;4.17;;;;;;;25.99;53.26;100604.99;126198;1099;104249;-75
2021/06/28 07:31:10;;;;;;;7.40;4.30;;;;;;;26.07;51.91;100599.41;126035;1099;104266;-76
2021/06/28 07:33:42;;;;;;;7.72;4.40;;;;;;;26.24;51.89;100599.86;125906;1099;104165;-76
2021/06/28 07:36:15;;;;;;;9.27;4.33;;;;;;;26.43;51.81;100594.84;126218;1099;104245;-76
2021/06/28 07:38:46;;;;;;;8.77;4.53;;;;;;;26.63;50.65;100596.95;126097;1098;104136;-76
2021/06/28 07:41:22;;;;;;;10.80;4.57;;;;;;;26.76;50.53;100608.27;126003;1099;104201;-76
2021/06/28 07:43:54;;;;;;;6.43;4.40;;;;;;;26.84;49.67;100602.65;126030;1099;104165;-76
2021/06/28 07:46:34;;;;;;;9.00;4.17;;;;;;;26.90;49.27;100589.87;126138;1099;102465;-77
2021/06/28 07:49:07;;;;;;;8.27;4.60;;;;;;;27.08;50.07;100599.20;126160;1099;104248;-76
2021/06/28 07:51:42;;;;;;;8.13;4.67;;;;;;;27.28;49.43;100597.67;125958;1099;104267;-76
2021/06/28 07:54:17;;;;;;;7.30;4.33;;;;;;;27.43;48.98;100602.60;126122;1098;104165;-76
2021/06/28 07:56:54;;;;;;;7.43;4.30;;;;;;;27.59;49.21;100605.66;126120;1099;104172;-76
2021/06/28 07:59:27;;;;;;;7.97;4.30;;;;;;;27.77;49.01;100614.09;126219;1099;104204;-78
2021/06/28 08:02:00;;;;;;;9.55;4.12;;;;;;;27.97;48.00;100611.61;126089;1099;104259;-76
2021/06/28 08:04:37;;;;;;;8.50;4.67;;;;;;;28.05;48.01;100599.66;125968;1097;104239;-75
2021/06/28 08:07:09;;;;;;;8.60;4.33;;;;;;;28.15;46.99;100607.37;126147;1099;104258;-75
2021/06/28 08:09:44;;;;;;;8.83;4.40;;;;;;;28.23;46.69;100600.83;126110;1099;104309;-76
2021/06/28 08:12:15;;;;;;;9.30;4.00;;;;;;;28.31;47.23;100604.12;126129;1099;104137;-77
2021/06/28 08:14:47;;;;;;;6.87;4.27;;;;;;;28.32;46.53;100601.36;125964;1099;104160;-76
2021/06/28 08:17:21;;;;;;;10.67;4.83;;;;;;;28.40;46.60;100608.31;125947;1098;104239;-75
2021/06/28 08:19:56;;;;;;;6.20;4.30;;;;;;;28.48;45.75;100617.87;126151;1099;104152;-77
2021/06/28 08:22:30;;;;;;;11.20;4.50;;;;;;;28.54;45.81;100605.11;126047;1099;104270;-76
2021/06/28 08:25:02;;;;;;;9.53;4.63;;;;;;;28.49;45.40;100599.87;125948;1099;104258;-75
2021/06/28 08:27:38;;;;;;;7.23;3.67;;;;;;;28.56;44.13;100608.62;125847;1099;104335;-76
2021/06/28 08:30:13;;;;;;;8.30;4.40;;;;;;;28.61;44.74;100607.55;126103;1099;104153;-76
2021/06/28 08:32:46;;;;;;;9.73;4.57;;;;;;;28.75;45.00;100608.83;126051;1099;104223;-76
2021/06/28 08:35:24;;;;;;;9.17;4.43;;;;;;;28.94;44.82;100601.79;126137;1099;104275;-77
2021/06/28 08:37:59;;;;;;;6.27;4.20;;;;;;;29.08;44.76;100611.15;126257;1099;104197;-76
2021/06/28 08:40:55;;;;;;;7.77;4.30;;;;;;;29.03;44.67;100604.13;126316;1099;104252;-77
2021/06/28 08:43:26;;;;;;;8.60;4.20;;;;;;;29.10;44.34;100603.89;126245;1098;105688;-77
2021/06/28 08:45:58;;;;;;;7.77;4.53;;;;;;;29.11;43.65;100601.12;126230;1099;104310;-77
2021/06/28 08:48:47;;;;;;;12.40;4.87;;;;;;;29.06;43.11;100600.41;126092;1098;104592;-76
2021/06/28 08:51:21;;;;;;;8.33;4.70;;;;;;;29.05;43.16;100606.77;126203;1099;104137;-75
2021/06/28 08:53:55;;;;;;;5.12;4.08;;;;;;;28.96;42.03;100612.53;126209;1099;104136;-76
2021/06/28 08:56:28;;;;;;;7.70;4.47;;;;;;;28.93;42.48;100616.22;126237;1099;104235;-77
2021/06/28 08:59:00;;;;;;;7.07;4.50;;;;;;;28.98;42.19;100611.51;126188;1099;104153;-77
2021/06/28 09:01:40;;;;;;;7.60;4.30;;;;;;;29.08;42.09;100616.55;125951;1099;104440;-78
2021/06/28 09:04:15;;;;;;;8.10;4.20;;;;;;;29.11;42.21;100616.43;125694;1099;104149;-77
2021/06/28 09:06:55;;;;;;;;;;;;;;;29.15;41.36;100618.08;125334;1102;104258;-80
2021/06/28 09:09:38;;;;;;;10.13;4.53;;;;;;;29.12;41.88;100624.47;125254;1099;104393;-77
2021/06/28 09:12:16;;;;;;;6.93;4.40;;;;;;;29.16;42.04;100625.25;125297;1102;104159;-78
2021/06/28 09:14:53;;;;;;;8.17;4.67;;;;;;;29.15;41.55;100618.08;125369;1099;105524;-79
2021/06/28 09:17:38;;;;;;;7.43;4.63;;;;;;;29.15;41.75;100609.98;126180;1099;104192;-78
2021/06/28 09:20:23;;;;;;;7.70;4.17;;;;;;;29.16;41.39;100612.62;126404;1099;104220;-77
2021/06/28 09:22:55;;;;;;;6.10;4.13;;;;;;;29.22;41.45;100620.52;126180;1099;104133;-81
2021/06/28 09:25:37;;;;;;;11.27;4.50;;;;;;;29.22;40.91;100606.13;126140;1099;104156;-78
2021/06/28 09:28:09;;;;;;;7.27;4.60;;;;;;;29.20;40.71;100611.59;126152;1099;104589;-77
2021/06/28 09:30:50;;;;;;;8.33;4.37;;;;;;;29.17;40.34;100624.30;126250;1099;104220;-79
2021/06/28 09:33:26;;;;;;;7.50;4.40;;;;;;;29.08;40.28;100616.55;126217;1099;104271;-80
2021/06/28 09:36:17;;;;;;;7.40;4.50;;;;;;;29.03;40.27;100612.23;126238;1099;104137;-79
2021/06/28 09:38:53;;;;;;;9.00;4.80;;;;;;;29.08;39.82;100611.15;126326;1098;104287;-78
2021/06/28 09:41:31;;;;;;;7.57;4.20;;;;;;;29.05;40.23;100610.34;126233;1099;104293;-79
2021/06/28 09:44:06;;;;;;;7.67;4.57;;;;;;;29.01;39.79;100611.39;125382;1099;104146;-77
2021/06/28 09:47:05;;;;;;;9.30;4.30;;;;;;;28.98;40.07;100602.54;125374;1099;104313;-77
2021/06/28 09:49:37;;;;;;;9.60;4.50;;;;;;;29.00;40.20;100597.95;125989;1099;104223;-78
2021/06/28 09:52:30;;;;;;;10.13;4.30;;;;;;;29.10;40.16;100603.89;125966;1099;104370;-79
2021/06/28 09:55:20;;;;;;;7.03;4.07;;;;;;;29.19;39.42;100604.42;125299;1099;104155;-77
2021/06/28 09:58:04;;;;;;;6.87;4.30;;;;;;;29.10;39.14;100610.16;126119;1099;104387;-77
2021/06/28 10:00:39;;;;;;;6.63;4.43;;;;;;;29.01;39.21;100597.02;126104;1099;104727;-77
2021/06/28 10:03:33;;;;;;;9.20;4.80;;;;;;;28.94;39.17;100596.39;126107;1099;104348;-77
2021/06/28 10:06:11;;;;;;;6.93;4.50;;;;;;;28.94;39.06;100601.79;126043;1098;104156;-77
2021/06/28 10:08:48;;;;;;;8.47;4.50;;;;;;;28.89;38.97;100601.09;126143;1098;104139;-76
2021/06/28 10:11:23;;;;;;;10.23;4.97;;;;;;;28.92;38.96;100600.98;125381;1099;104178;-76
2021/06/28 10:13:57;;;;;;;7.63;4.57;;;;;;;28.97;39.20;100607.07;126060;1099;104354;-76
2021/06/28 10:16:34;;;;;;;9.73;4.80;;;;;;;29.01;38.51;100619.49;126014;1099;104348;-77
2021/06/28 10:19:09;;;;;;;6.33;4.23;;;;;;;28.99;38.60;100609.71;126085;1099;104143;-77
2021/06/28 10:21:42;;;;;;;7.67;4.47;;;;;;;28.99;38.43;100604.31;126031;1099;104216;-77
2021/06/28 10:24:13;;;;;;;10.00;5.00;;;;;;;28.90;38.68;100602.84;126091;1099;104162;-76
2021/06/28 10:26:44;;;;;;;8.13;4.50;;;;;;;28.89;38.98;100601.09;126113;1099;104158;-76
2021/06/28 10:29:22;;;;;;;8.10;4.83;;;;;;;28.92;38.91;100603.68;126099;1099;104175;-77
2021/06/28 10:31:54;;;;;;;7.33;4.60;;;;;;;28.97;38.64;100604.37;126151;1099;104155;-76
2021/06/28 10:34:28;;;;;;;7.33;5.05;;;;;;;29.05;38.38;100594.13;125738;1099;104188;-76
2021/06/28 10:37:03;;;;;;;9.33;4.47;;;;;;;29.02;38.80;100607.76;125965;1099;104344;-76
2021/06/28 10:39:37;;;;;;;10.23;4.77;;;;;;;29.02;38.46;100601.48;125912;1099;104335;-77
2021/06/28 10:42:12;;;;;;;12.13;4.70;;;;;;;29.11;38.80;100594.81;126116;1099;102340;-77
2021/06/28 10:44:53;;;;;;;8.97;4.97;;;;;;;29.16;38.77;100588.30;125854;1099;104263;-78
2021/06/28 10:47:28;;;;;;;9.47;4.87;;;;;;;29.10;38.58;100584.98;125488;1099;104245;-78
2021/06/28 10:50:09;;;;;;;7.60;4.57;;;;;;;29.06;38.42;100586.89;125181;1099;104284;-78
2021/06/28 10:52:52;;;;;;;16.30;5.57;;;;;;;29.05;38.54;100587.86;125565;1099;104560;-77
2021/06/28 10:55:44;;;;;;;11.00;4.77;;;;;;;29.07;38.55;100582.39;125184;1099;104358;-77
2021/06/28 10:58:30;;;;;;;14.07;5.27;;;;;;;29.05;38.28;100588.73;125163;1099;104319;-78
2021/06/28 11:01:09;;;;;;;8.23;4.80;;;;;;;29.00;38.33;100579.94;125241;1099;104272;-79
2021/06/28 11:03:43;;;;;;;7.40;4.50;;;;;;;28.95;38.28;100579.25;125607;1099;104176;-78
2021/06/28 11:06:25;;;;;;;7.63;4.60;;;;;;;28.79;38.44;100580.78;125586;1099;104245;-77
2021/06/28 11:09:04;;;;;;;7.77;4.93;;;;;;;28.75;38.36;100580.03;126159;1099;108691;-78
2021/06/28 11:11:58;;;;;;;8.25;4.75;;;;;;;28.78;38.84;100577.21;126140;1099;104220;-78
2021/06/28 11:14:48;;;;;;;12.13;4.90;;;;;;;28.90;38.86;100567.73;126292;1099;104165;-78
2021/06/28 11:17:39;;;;;;;6.23;4.70;;;;;;;28.92;38.64;100578.47;126080;1099;104178;-78
2021/06/28 11:20:32;;;;;;;12.07;5.50;;;;;;;28.70;38.54;100584.70;126184;1099;104293;-78
2021/06/28 11:23:08;;;;;;;8.13;4.80;;;;;;;28.66;38.15;100566.88;125981;1099;104297;-77
2021/06/28 11:25:51;;;;;;;7.13;4.63;;;;;;;28.72;38.20;100565.75;126063;1099;104152;-75
2021/06/28 11:28:27;;;;;;;8.08;4.60;;;;;;;28.80;38.67;100566.35;126102;1099;104197;-76
2021/06/28 11:31:06;;;;;;;5.80;4.60;;;;;;;28.90;38.47;100565.03;126192;1099;104303;-76
2021/06/28 11:33:50;;;;;;;11.20;5.13;;;;;;;28.96;37.95;100564.78;126181;1099;104140;-76
2021/06/28 11:36:42;;;;;;;7.50;4.50;;;;;;;28.92;38.01;100568.57;126214;1099;104197;-76
2021/06/28 11:39:34;;;;;;;8.60;4.53;;;;;;;28.90;38.01;100559.63;126251;1099;104168;-75